Time,TemperatureF,DewpointF,PressureIn,WindDirection,WindDirectionDegrees,WindSpeedMPH,WindSpeedGustMPH,Humidity,HourlyPrecipIn,Conditions,Clouds,dailyrainin,SolarRadiationWatts/m^2,SoftwareType,DateUTC
2013-01-23 00:03:00,29.0,27.5,29.63,WNW,302,1.8,6.9,94,0.02,RA,,0.01,0.0,WeatherDisplay:10.37,2013-01-22 23:03:00,
2013-01-23 00:08:00,28.9,27.4,29.64,North,360,3.0,5.0,94,0.02,RA,,0.01,0.0,WeatherDisplay:10.37,2013-01-22 23:08:00,
2013-01-23 00:13:00,28.8,27.3,29.64,NW,321,1.1,4.6,94,0.02,RA,,0.02,0.0,WeatherDisplay:10.37,2013-01-22 23:13:00,
2013-01-23 00:18:00,28.8,27.3,29.64,NW,321,0.5,1.1,94,0.02,RA,,0.02,0.0,WeatherDisplay:10.37,2013-01-22 23:18:00,
2013-01-23 00:23:00,28.8,27.3,29.64,NW,321,0.2,1.1,94,0.02,BKN,,0.02,0.0,WeatherDisplay:10.37,2013-01-22 23:23:00,
2013-01-23 00:29:00,28.8,27.3,29.64,NW,321,0.3,1.1,94,0.02,BKN,,0.02,0.0,WeatherDisplay:10.37,2013-01-22 23:29:00,
2013-01-23 00:34:00,28.8,27.3,29.64,NW,321,1.1,3.5,94,0.02,RA,,0.02,0.0,WeatherDisplay:10.37,2013-01-22 23:34:00,
2013-01-23 00:40:00,28.8,27.3,29.64,NW,323,1.0,4.0,94,0.01,RA,,0.02,0.0,WeatherDisplay:10.37,2013-01-22 23:40:00,
2013-01-23 00:45:00,28.8,27.3,29.64,NW,321,1.6,3.5,94,0.02,BKN,,0.02,0.0,WeatherDisplay:10.37,2013-01-22 23:45:00,
2013-01-23 00:50:00,28.7,27.2,29.64,WNW,290,0.0,2.3,94,0.02,BKN,,0.02,0.0,WeatherDisplay:10.37,2013-01-22 23:50:00,
2013-01-23 00:55:00,28.6,27.1,29.64,WNW,290,0.4,1.1,94,0.00,RA,,0.03,0.0,WeatherDisplay:10.37,2013-01-22 23:55:00,
2013-01-23 01:00:00,28.6,27.1,29.64,WNW,290,2.9,4.0,94,0.00,RA,,0.03,0.0,WeatherDisplay:10.37,2013-01-23 00:00:00,
2013-01-23 01:05:00,28.6,27.1,29.64,WNW,290,1.6,3.5,94,0.02,BKN,,0.03,0.0,WeatherDisplay:10.37,2013-01-23 00:05:00,
2013-01-23 01:10:00,28.5,27.0,29.65,WNW,291,2.0,6.0,94,0.00,BKN,,0.03,0.0,WeatherDisplay:10.37,2013-01-23 00:10:00,
2013-01-23 01:15:00,28.4,26.9,29.64,WNW,290,2.3,5.0,94,0.02,BKN,,0.03,0.0,WeatherDisplay:10.37,2013-01-23 00:15:00,
2013-01-23 01:20:00,28.3,26.8,29.65,West,281,2.0,7.0,94,0.01,RA,,0.04,0.0,WeatherDisplay:10.37,2013-01-23 00:20:00,
2013-01-23 01:25:00,28.2,26.7,29.65,WNW,298,2.8,4.0,94,0.02,RA,,0.04,0.0,WeatherDisplay:10.37,2013-01-23 00:25:00,
2013-01-23 01:30:00,28.1,26.6,29.65,WNW,303,2.4,7.0,94,0.02,BKN,,0.04,0.0,WeatherDisplay:10.37,2013-01-23 00:30:00,
2013-01-23 01:35:00,28.1,26.6,29.65,WNW,292,1.7,4.0,94,0.02,BKN,,0.04,0.0,WeatherDisplay:10.37,2013-01-23 00:35:00,
2013-01-23 01:40:00,28.0,26.8,29.65,North,360,0.7,2.3,95,0.02,BKN,,0.04,0.0,WeatherDisplay:10.37,2013-01-23 00:40:00,
2013-01-23 01:45:00,28.0,26.8,29.65,WNW,290,0.8,2.3,95,0.02,BKN,,0.04,0.0,WeatherDisplay:10.37,2013-01-23 00:45:00,
2013-01-23 01:50:00,27.9,26.7,29.65,WNW,290,1.8,5.0,95,0.02,BKN,,0.04,0.0,WeatherDisplay:10.37,2013-01-23 00:50:00,
2013-01-23 01:55:00,27.9,26.4,29.66,North,360,1.1,3.5,94,0.02,RA,,0.05,0.0,WeatherDisplay:10.37,2013-01-23 00:55:00,
2013-01-23 02:00:00,27.9,26.4,29.66,WNW,290,0.2,2.3,94,0.02,RA,,0.05,0.0,WeatherDisplay:10.37,2013-01-23 01:00:00,
2013-01-23 02:05:00,27.8,26.6,29.66,WNW,290,0.6,3.5,95,0.02,BKN,,0.05,0.0,WeatherDisplay:10.37,2013-01-23 01:05:00,
2013-01-23 02:10:00,27.8,26.6,29.66,WNW,291,2.5,4.0,95,0.02,BKN,,0.05,0.0,WeatherDisplay:10.37,2013-01-23 01:10:00,
2013-01-23 02:15:00,27.8,26.6,29.66,West,281,0.6,4.6,95,0.02,BKN,,0.05,0.0,WeatherDisplay:10.37,2013-01-23 01:15:00,
2013-01-23 02:20:00,27.8,26.6,29.66,West,281,0.5,2.3,95,0.01,BKN,,0.05,0.0,WeatherDisplay:10.37,2013-01-23 01:20:00,
2013-01-23 02:25:00,27.8,26.6,29.66,West,277,1.3,5.0,95,0.01,BKN,,0.05,0.0,WeatherDisplay:10.37,2013-01-23 01:25:00,
2013-01-23 02:30:00,27.8,26.6,29.66,West,277,1.0,3.0,95,0.01,BKN,,0.05,0.0,WeatherDisplay:10.37,2013-01-23 01:30:00,
2013-01-23 02:35:00,27.8,26.6,29.66,WNW,284,0.3,3.5,95,0.01,BKN,,0.05,0.0,WeatherDisplay:10.37,2013-01-23 01:35:00,
2013-01-23 02:40:00,27.8,26.6,29.66,WNW,285,0.5,2.3,95,0.01,BKN,,0.05,0.0,WeatherDisplay:10.37,2013-01-23 01:40:00,
2013-01-23 02:45:00,27.8,26.6,29.66,WNW,285,0.5,2.3,95,0.01,BKN,,0.05,0.0,WeatherDisplay:10.37,2013-01-23 01:45:00,
2013-01-23 02:50:00,27.8,26.6,29.66,WNW,285,1.7,3.5,95,0.02,RA,,0.06,0.0,WeatherDisplay:10.37,2013-01-23 01:50:00,
2013-01-23 02:55:00,27.8,26.6,29.66,WNW,285,1.4,3.5,95,0.01,RA,,0.06,0.0,WeatherDisplay:10.37,2013-01-23 01:55:00,
2013-01-23 03:00:00,27.8,26.6,29.66,NW,325,0.7,3.0,95,0.01,BKN,,0.06,0.0,WeatherDisplay:10.37,2013-01-23 02:00:00,
2013-01-23 03:05:00,27.8,26.6,29.66,NW,309,0.4,3.5,95,0.01,BKN,,0.06,0.0,WeatherDisplay:10.37,2013-01-23 02:05:00,
2013-01-23 03:10:00,27.7,26.5,29.67,NW,309,1.2,3.0,95,0.01,BKN,,0.06,0.0,WeatherDisplay:10.37,2013-01-23 02:10:00,
2013-01-23 03:15:00,27.7,26.5,29.67,NW,309,1.2,3.5,95,0.01,BKN,,0.06,0.0,WeatherDisplay:10.37,2013-01-23 02:15:00,
2013-01-23 03:20:00,27.7,26.5,29.67,NW,309,0.0,2.3,95,0.01,BKN,,0.06,0.0,WeatherDisplay:10.37,2013-01-23 02:20:00,
2013-01-23 03:25:00,27.7,26.5,29.67,WNW,290,2.7,6.0,95,0.01,BKN,,0.06,0.0,WeatherDisplay:10.37,2013-01-23 02:25:00,
2013-01-23 03:30:00,27.7,26.4,29.67,WNW,292,1.0,3.0,95,0.00,BKN,,0.05,0.0,WeatherDisplay:10.37,2013-01-23 02:30:00,
2013-01-23 03:35:00,27.6,26.4,29.67,WNW,291,1.3,3.5,95,0.01,BKN,,0.06,0.0,WeatherDisplay:10.37,2013-01-23 02:35:00,
2013-01-23 03:40:00,27.6,26.4,29.67,WNW,291,0.1,2.3,95,0.01,BKN,,0.06,0.0,WeatherDisplay:10.37,2013-01-23 02:40:00,
2013-01-23 03:45:00,27.6,26.4,29.67,WNW,291,1.4,4.0,95,0.02,RA,,0.06,0.0,WeatherDisplay:10.37,2013-01-23 02:45:00,
2013-01-23 03:50:00,27.6,26.4,29.67,NW,305,0.3,3.5,95,0.01,RA,,0.06,0.0,WeatherDisplay:10.37,2013-01-23 02:50:00,
2013-01-23 03:55:00,27.5,26.3,29.68,NW,305,0.6,3.5,95,0.02,RA,,0.07,0.0,WeatherDisplay:10.37,2013-01-23 02:55:00,
2013-01-23 04:00:00,27.5,26.3,29.68,NW,305,0.1,2.3,95,0.02,RA,,0.07,0.0,WeatherDisplay:10.37,2013-01-23 03:00:00,
2013-01-23 04:05:00,27.5,26.3,29.68,NW,305,1.0,2.3,95,0.02,RA,,0.08,0.0,WeatherDisplay:10.37,2013-01-23 03:05:00,
2013-01-23 04:10:00,27.5,26.3,29.68,NW,304,0.6,2.3,95,0.02,RA,,0.08,0.0,WeatherDisplay:10.37,2013-01-23 03:10:00,
2013-01-23 04:15:00,27.4,25.9,29.68,NW,305,0.0,1.1,94,0.03,RA,,0.09,0.0,WeatherDisplay:10.37,2013-01-23 03:15:00,
2013-01-23 04:20:00,27.4,25.9,29.68,NW,308,0.0,1.0,94,0.01,RA,,0.09,0.0,WeatherDisplay:10.37,2013-01-23 03:20:00,
2013-01-23 04:25:00,27.4,26.2,29.68,NW,304,0.0,1.1,95,0.04,RA,,0.09,0.0,WeatherDisplay:10.37,2013-01-23 03:25:00,
2013-01-23 04:30:00,27.4,26.2,29.68,NW,305,0.0,0.0,95,0.04,RA,,0.09,0.0,WeatherDisplay:10.37,2013-01-23 03:30:00,
2013-01-23 04:35:00,27.3,26.1,29.69,NW,305,0.0,0.0,95,0.05,RA,,0.10,0.0,WeatherDisplay:10.37,2013-01-23 03:35:00,
2013-01-23 04:40:00,27.4,26.2,29.69,NW,305,0.0,0.0,95,0.06,RA,,0.11,0.0,WeatherDisplay:10.37,2013-01-23 03:40:00,
2013-01-23 04:45:00,27.3,26.1,29.69,NW,305,0.0,0.0,95,0.05,RA,,0.11,0.0,WeatherDisplay:10.37,2013-01-23 03:45:00,
2013-01-23 04:50:00,27.3,26.1,29.69,NW,305,0.0,1.1,95,0.06,RA,,0.12,0.0,WeatherDisplay:10.37,2013-01-23 03:50:00,
2013-01-23 04:55:00,27.3,26.1,29.69,NW,305,0.0,1.1,95,0.05,RA,,0.13,0.0,WeatherDisplay:10.37,2013-01-23 03:55:00,
2013-01-23 05:00:00,27.3,26.1,29.69,NW,316,1.0,3.0,95,0.00,RA,,0.13,0.0,WeatherDisplay:10.37,2013-01-23 04:00:00,
2013-01-23 05:05:00,27.3,26.1,29.70,NW,304,0.0,0.0,95,0.06,RA,,0.13,0.0,WeatherDisplay:10.37,2013-01-23 04:05:00,
2013-01-23 05:10:00,27.3,26.1,29.70,NW,305,2.2,3.5,95,0.06,RA,,0.13,0.0,WeatherDisplay:10.37,2013-01-23 04:10:00,
2013-01-23 05:15:00,27.3,26.1,29.70,NW,305,0.1,2.3,95,0.06,RA,,0.14,0.0,WeatherDisplay:10.37,2013-01-23 04:15:00,
2013-01-23 05:20:00,27.3,26.1,29.70,NNW,329,2.6,6.0,95,0.06,RA,,0.14,0.0,WeatherDisplay:10.37,2013-01-23 04:20:00,
2013-01-23 05:25:00,27.3,26.1,29.70,WNW,300,4.5,8.1,95,0.06,RA,,0.15,0.0,WeatherDisplay:10.37,2013-01-23 04:25:00,
2013-01-23 05:30:00,27.3,26.1,29.70,North,360,5.5,9.2,95,0.06,RA,,0.15,0.0,WeatherDisplay:10.37,2013-01-23 04:30:00,
2013-01-23 05:35:00,27.2,26.0,29.71,North,360,2.4,6.0,95,0.05,BKN,,0.15,0.0,WeatherDisplay:10.37,2013-01-23 04:35:00,
2013-01-23 05:40:00,27.1,25.9,29.71,NW,315,3.0,8.1,95,0.04,BKN,,0.15,0.0,WeatherDisplay:10.37,2013-01-23 04:40:00,
2013-01-23 05:46:00,27.0,25.8,29.71,North,360,2.7,5.0,95,0.04,BKN,,0.15,0.0,WeatherDisplay:10.37,2013-01-23 04:46:00,
2013-01-23 05:52:00,26.9,25.7,29.71,NW,318,2.3,5.8,95,0.03,BKN,,0.15,0.0,WeatherDisplay:10.37,2013-01-23 04:52:00,
2013-01-23 05:58:00,26.8,25.6,29.71,North,360,1.5,4.6,95,0.03,RA,,0.16,0.0,WeatherDisplay:10.37,2013-01-23 04:58:00,
2013-01-23 06:01:00,26.8,25.6,29.71,NW,318,2.2,6.9,95,0.03,RA,,0.16,0.0,WeatherDisplay:10.37,2013-01-23 05:01:00,
2013-01-23 06:03:00,26.8,25.6,29.71,NNW,341,2.0,5.0,95,0.02,RA,,0.16,0.0,WeatherDisplay:10.37,2013-01-23 05:03:00,
2013-01-23 06:05:00,26.8,25.6,29.71,NW,311,2.2,6.0,95,0.02,BKN,,0.16,0.0,WeatherDisplay:10.37,2013-01-23 05:05:00,
2013-01-23 06:10:00,26.7,25.5,29.72,North,360,1.6,3.5,95,0.02,BKN,,0.16,0.0,WeatherDisplay:10.37,2013-01-23 05:10:00,
2013-01-23 06:15:00,26.7,25.5,29.72,WNW,300,1.1,5.8,95,0.02,BKN,,0.16,0.0,WeatherDisplay:10.37,2013-01-23 05:15:00,
2013-01-23 06:20:00,26.7,25.5,29.72,NW,310,2.6,5.0,95,0.02,BKN,,0.16,0.0,WeatherDisplay:10.37,2013-01-23 05:20:00,
2013-01-23 06:24:00,26.6,25.4,29.72,WNW,292,3.3,5.8,95,0.02,RA,,0.17,0.0,WeatherDisplay:10.37,2013-01-23 05:24:00,
2013-01-23 06:29:00,26.6,25.4,29.72,WNW,300,0.5,3.5,95,0.02,RA,,0.17,0.0,WeatherDisplay:10.37,2013-01-23 05:29:00,
2013-01-23 06:34:00,26.6,25.4,29.73,NW,311,1.5,4.6,95,0.02,BKN,,0.17,0.0,WeatherDisplay:10.37,2013-01-23 05:34:00,
2013-01-23 06:39:00,26.5,25.3,29.73,NNW,327,0.6,3.5,95,0.02,BKN,,0.17,0.0,WeatherDisplay:10.37,2013-01-23 05:39:00,
2013-01-23 06:44:00,26.5,25.3,29.73,NW,326,0.8,2.3,95,0.02,BKN,,0.17,0.0,WeatherDisplay:10.37,2013-01-23 05:44:00,
2013-01-23 06:49:00,26.5,25.3,29.73,NW,326,0.6,2.3,95,0.02,BKN,,0.17,0.0,WeatherDisplay:10.37,2013-01-23 05:49:00,
2013-01-23 06:54:00,26.4,25.2,29.73,NW,313,2.0,4.0,95,0.01,BKN,,0.17,0.0,WeatherDisplay:10.37,2013-01-23 05:54:00,
2013-01-23 06:59:00,26.4,25.2,29.73,NW,314,1.2,3.5,95,0.01,BKN,,0.17,0.0,WeatherDisplay:10.37,2013-01-23 05:59:00,
2013-01-23 07:04:00,26.4,25.2,29.73,North,360,0.1,2.3,95,0.01,BKN,,0.17,0.0,WeatherDisplay:10.37,2013-01-23 06:04:00,
2013-01-23 07:09:00,26.4,25.2,29.73,North,360,0.3,2.3,95,0.01,BKN,,0.17,0.0,WeatherDisplay:10.37,2013-01-23 06:09:00,
2013-01-23 07:14:00,26.4,25.2,29.73,NW,315,1.3,3.5,95,0.01,BKN,,0.17,0.0,WeatherDisplay:10.37,2013-01-23 06:14:00,
2013-01-23 07:19:00,26.4,25.2,29.74,North,360,1.1,2.3,95,0.01,BKN,,0.17,0.0,WeatherDisplay:10.37,2013-01-23 06:19:00,
2013-01-23 07:24:00,26.4,25.2,29.74,NW,315,1.2,3.5,95,0.00,BKN,,0.17,0.0,WeatherDisplay:10.37,2013-01-23 06:24:00,
2013-01-23 07:29:00,26.4,25.2,29.74,NW,315,1.1,2.3,95,0.01,RA,,0.17,0.0,WeatherDisplay:10.37,2013-01-23 06:29:00,
2013-01-23 07:34:00,26.4,25.2,29.74,NW,315,0.3,1.1,95,0.01,RA,,0.17,0.0,WeatherDisplay:10.37,2013-01-23 06:34:00,
2013-01-23 07:39:00,26.4,25.2,29.74,NW,315,0.0,1.1,95,0.01,BKN,,0.17,0.0,WeatherDisplay:10.37,2013-01-23 06:39:00,
2013-01-23 07:45:00,26.5,25.2,29.74,NNW,328,0.0,1.0,95,0.00,BKN,,0.17,0.0,WeatherDisplay:10.37,2013-01-23 06:45:00,
2013-01-23 07:50:00,26.5,25.3,29.74,NW,318,0.0,1.0,95,0.00,BKN,,0.17,0.0,WeatherDisplay:10.37,2013-01-23 06:50:00,
2013-01-23 07:55:00,26.5,25.3,29.75,NW,315,0.1,1.0,95,0.01,BKN,,0.17,0.0,WeatherDisplay:10.37,2013-01-23 06:55:00,
2013-01-23 08:00:00,26.5,25.3,29.75,NW,317,0.0,1.0,95,0.00,BKN,,0.17,0.0,WeatherDisplay:10.37,2013-01-23 07:00:00,
2013-01-23 08:05:00,26.6,25.4,29.75,NW,315,0.0,0.0,95,0.01,BKN,,0.17,0.0,WeatherDisplay:10.37,2013-01-23 07:05:00,
2013-01-23 08:10:00,26.6,25.4,29.75,NW,315,0.0,0.0,95,0.01,BKN,,0.17,0.0,WeatherDisplay:10.37,2013-01-23 07:10:00,
2013-01-23 08:15:00,26.7,25.5,29.75,NW,315,0.0,0.0,95,0.01,BKN,,0.17,5.0,WeatherDisplay:10.37,2013-01-23 07:15:00,
2013-01-23 08:20:00,26.8,25.6,29.75,North,360,0.0,0.0,95,0.01,OVC,,0.17,5.0,WeatherDisplay:10.37,2013-01-23 07:20:00,
2013-01-23 08:25:00,26.9,25.7,29.75,NW,315,0.0,0.0,95,0.01,BKN,,0.17,7.0,WeatherDisplay:10.37,2013-01-23 07:25:00,
2013-01-23 08:30:00,26.9,25.7,29.75,NW,318,0.0,1.0,95,0.01,RA,,0.18,7.0,WeatherDisplay:10.37,2013-01-23 07:30:00,
2013-01-23 08:35:00,27.0,25.8,29.75,NW,315,0.0,1.1,95,0.01,RA,,0.18,9.0,WeatherDisplay:10.37,2013-01-23 07:35:00,
2013-01-23 08:40:00,27.1,25.9,29.75,NW,315,0.4,2.3,95,0.01,BKN,,0.18,9.0,WeatherDisplay:10.37,2013-01-23 07:40:00,
2013-01-23 08:45:00,27.2,26.0,29.76,NW,315,0.1,2.3,95,0.01,BKN,,0.18,9.0,WeatherDisplay:10.37,2013-01-23 07:45:00,
2013-01-23 08:50:00,27.3,26.1,29.76,NW,315,0.1,1.1,95,0.01,BKN,,0.18,11.0,WeatherDisplay:10.37,2013-01-23 07:50:00,
2013-01-23 08:55:00,27.4,26.2,29.76,NW,315,0.0,1.1,95,0.01,BKN,,0.18,11.0,WeatherDisplay:10.37,2013-01-23 07:55:00,
2013-01-23 09:00:00,27.5,26.3,29.76,NW,316,0.0,2.0,95,0.00,BKN,,0.18,11.0,WeatherDisplay:10.37,2013-01-23 08:00:00,
2013-01-23 09:05:00,27.6,26.4,29.76,NW,315,0.0,3.5,95,0.01,BKN,,0.18,11.0,WeatherDisplay:10.37,2013-01-23 08:05:00,
2013-01-23 09:10:00,27.7,26.5,29.76,North,360,0.0,2.3,95,0.01,BKN,,0.18,12.0,WeatherDisplay:10.37,2013-01-23 08:10:00,
2013-01-23 09:15:00,27.8,26.6,29.76,NW,315,0.8,2.0,95,0.01,BKN,,0.18,12.0,WeatherDisplay:10.37,2013-01-23 08:15:00,
2013-01-23 09:20:00,27.9,26.7,29.77,NW,315,0.0,2.3,95,0.01,BKN,,0.18,12.0,WeatherDisplay:10.37,2013-01-23 08:20:00,
2013-01-23 09:25:00,28.0,26.5,29.77,NW,315,0.1,1.1,94,0.01,BKN,,0.18,14.0,WeatherDisplay:10.37,2013-01-23 08:25:00,
2013-01-23 09:30:00,28.0,26.5,29.77,NW,315,0.0,0.0,94,0.00,BKN,,0.18,14.0,WeatherDisplay:10.37,2013-01-23 08:30:00,
2013-01-23 09:35:00,28.1,26.6,29.77,North,360,0.0,0.0,94,0.00,BKN,,0.18,14.0,WeatherDisplay:10.37,2013-01-23 08:35:00,
2013-01-23 09:40:00,28.2,26.7,29.77,NW,315,0.4,2.3,94,0.00,BKN,,0.18,16.0,WeatherDisplay:10.37,2013-01-23 08:40:00,
2013-01-23 09:45:00,28.3,26.8,29.77,NW,315,0.5,2.3,94,0.00,BKN,,0.18,16.0,WeatherDisplay:10.37,2013-01-23 08:45:00,
2013-01-23 09:50:00,28.3,26.8,29.77,NW,315,0.6,3.5,94,0.00,BKN,,0.18,18.0,WeatherDisplay:10.37,2013-01-23 08:50:00,
2013-01-23 09:55:00,28.4,26.6,29.77,NW,315,0.2,2.0,93,0.00,BKN,,0.18,18.0,WeatherDisplay:10.37,2013-01-23 08:55:00,
2013-01-23 10:00:00,28.5,26.7,29.77,NW,315,0.5,2.3,93,0.00,BKN,,0.18,18.0,WeatherDisplay:10.37,2013-01-23 09:00:00,
2013-01-23 10:05:00,28.6,26.8,29.77,NW,315,0.0,0.0,93,0.00,BKN,,0.18,18.0,WeatherDisplay:10.37,2013-01-23 09:05:00,
2013-01-23 10:10:00,28.7,26.9,29.78,NW,315,0.6,2.3,93,0.00,BKN,,0.18,18.0,WeatherDisplay:10.37,2013-01-23 09:10:00,
2013-01-23 10:15:00,28.8,27.0,29.78,NW,315,1.3,3.5,93,0.00,BKN,,0.18,18.0,WeatherDisplay:10.37,2013-01-23 09:15:00,
2013-01-23 10:20:00,28.8,26.8,29.78,NW,315,0.0,1.1,92,0.00,BKN,,0.18,18.0,WeatherDisplay:10.37,2013-01-23 09:20:00,
2013-01-23 10:25:00,28.8,26.8,29.78,NW,315,0.2,3.5,92,0.00,BKN,,0.18,18.0,WeatherDisplay:10.37,2013-01-23 09:25:00,
2013-01-23 10:30:00,28.9,26.9,29.78,North,360,0.0,0.0,92,0.00,BKN,,0.18,19.0,WeatherDisplay:10.37,2013-01-23 09:30:00,
2013-01-23 10:35:00,28.9,26.9,29.78,NW,315,0.9,2.3,92,0.00,BKN,,0.18,19.0,WeatherDisplay:10.37,2013-01-23 09:35:00,
2013-01-23 10:40:00,29.0,27.0,29.78,NW,315,1.8,3.5,92,0.00,BKN,,0.18,21.0,WeatherDisplay:10.37,2013-01-23 09:40:00,
2013-01-23 10:45:00,29.1,27.1,29.78,NW,315,2.1,3.5,92,0.00,BKN,,0.18,23.0,WeatherDisplay:10.37,2013-01-23 09:45:00,
2013-01-23 10:50:00,29.2,27.2,29.78,NW,315,0.4,2.3,92,0.00,BKN,,0.18,25.0,WeatherDisplay:10.37,2013-01-23 09:50:00,
2013-01-23 10:55:00,29.4,27.4,29.78,NW,315,0.0,1.1,92,0.00,BKN,,0.18,26.0,WeatherDisplay:10.37,2013-01-23 09:55:00,
2013-01-23 11:00:00,29.5,27.5,29.78,NW,315,1.4,3.5,92,0.00,BKN,,0.18,28.0,WeatherDisplay:10.37,2013-01-23 10:00:00,
2013-01-23 11:05:00,29.6,27.6,29.78,NW,315,0.5,2.3,92,0.00,BKN,,0.18,30.0,WeatherDisplay:10.37,2013-01-23 10:05:00,
2013-01-23 11:10:00,29.8,27.5,29.78,NW,315,0.9,3.0,91,0.00,BKN,,0.18,32.0,WeatherDisplay:10.37,2013-01-23 10:10:00,
2013-01-23 11:15:00,29.9,27.6,29.78,NW,315,0.2,3.5,91,0.00,BKN,,0.18,35.0,WeatherDisplay:10.37,2013-01-23 10:15:00,
2013-01-23 11:20:00,30.0,27.7,29.78,NW,315,0.5,2.3,91,0.00,BKN,,0.18,37.0,WeatherDisplay:10.37,2013-01-23 10:20:00,
2013-01-23 11:25:00,30.2,27.9,29.78,NW,315,0.3,2.3,91,0.00,BKN,,0.18,39.0,WeatherDisplay:10.37,2013-01-23 10:25:00,
2013-01-23 11:30:00,30.4,28.1,29.78,NW,317,0.0,2.0,91,0.00,BKN,,0.18,39.0,WeatherDisplay:10.37,2013-01-23 10:30:00,
2013-01-23 11:35:00,30.7,28.4,29.78,NW,315,1.2,2.3,91,0.00,BKN,,0.18,39.0,WeatherDisplay:10.37,2013-01-23 10:35:00,
2013-01-23 11:40:00,30.9,28.6,29.78,NW,315,1.0,2.3,91,0.00,BKN,,0.18,37.0,WeatherDisplay:10.37,2013-01-23 10:40:00,
2013-01-23 11:46:00,31.1,28.5,29.78,NW,315,1.0,3.0,90,0.00,BKN,,0.18,37.0,WeatherDisplay:10.37,2013-01-23 10:46:00,
2013-01-23 11:51:00,31.2,28.3,29.77,NW,315,1.6,3.5,89,0.00,BKN,,0.18,33.0,WeatherDisplay:10.37,2013-01-23 10:51:00,
2013-01-23 11:57:00,31.2,28.3,29.77,NW,315,0.4,2.3,89,0.00,BKN,,0.18,32.0,WeatherDisplay:10.37,2013-01-23 10:57:00,
2013-01-23 12:02:00,31.3,28.4,29.77,NW,315,0.9,3.5,89,0.00,BKN,,0.18,32.0,WeatherDisplay:10.37,2013-01-23 11:02:00,
2013-01-23 12:07:00,31.4,28.5,29.77,NW,315,0.6,2.3,89,0.00,BKN,,0.18,32.0,WeatherDisplay:10.37,2013-01-23 11:07:00,
2013-01-23 12:12:00,31.4,28.5,29.78,NW,315,0.2,2.0,89,0.00,BKN,,0.18,32.0,WeatherDisplay:10.37,2013-01-23 11:12:00,
2013-01-23 12:18:00,31.5,28.6,29.78,NW,315,2.2,3.5,89,0.00,BKN,,0.18,32.0,WeatherDisplay:10.37,2013-01-23 11:18:00,
2013-01-23 12:23:00,31.5,28.6,29.78,NW,315,0.1,2.3,89,0.00,BKN,,0.18,32.0,WeatherDisplay:10.37,2013-01-23 11:23:00,
2013-01-23 12:28:00,31.6,28.7,29.78,NW,315,1.3,3.5,89,0.00,BKN,,0.18,32.0,WeatherDisplay:10.37,2013-01-23 11:28:00,
2013-01-23 12:33:00,31.8,28.9,29.78,NW,315,0.0,1.1,89,0.00,BKN,,0.18,32.0,WeatherDisplay:10.37,2013-01-23 11:33:00,
2013-01-23 12:39:00,32.0,29.1,29.78,NW,315,1.0,2.3,89,0.00,BKN,,0.18,35.0,WeatherDisplay:10.37,2013-01-23 11:39:00,
2013-01-23 12:44:00,32.2,29.3,29.78,NW,315,0.0,1.1,89,0.00,BKN,,0.18,37.0,WeatherDisplay:10.37,2013-01-23 11:44:00,
2013-01-23 12:49:00,32.3,29.4,29.78,NW,315,0.0,0.0,89,0.00,BKN,,0.18,37.0,WeatherDisplay:10.37,2013-01-23 11:49:00,
2013-01-23 12:54:00,32.4,29.5,29.78,NW,315,0.0,0.0,89,0.00,BKN,,0.18,39.0,WeatherDisplay:10.37,2013-01-23 11:54:00,
2013-01-23 12:59:00,32.6,29.7,29.78,NW,315,0.1,1.1,89,0.00,BKN,,0.18,39.0,WeatherDisplay:10.37,2013-01-23 11:59:00,
2013-01-23 13:04:00,32.7,29.8,29.78,NW,315,0.0,1.0,89,0.00,BKN,,0.18,35.0,WeatherDisplay:10.37,2013-01-23 12:04:00,
2013-01-23 13:09:00,32.8,29.6,29.79,NW,315,0.3,2.3,88,0.00,BKN,,0.18,33.0,WeatherDisplay:10.37,2013-01-23 12:09:00,
2013-01-23 13:15:00,32.8,29.6,29.79,NW,318,0.0,0.0,88,0.00,BKN,,0.18,33.0,WeatherDisplay:10.37,2013-01-23 12:15:00,
2013-01-23 13:20:00,32.9,29.7,29.79,WNW,300,2.0,7.0,88,0.00,BKN,,0.18,33.0,WeatherDisplay:10.37,2013-01-23 12:20:00,
2013-01-23 13:25:00,33.0,29.8,29.79,West,263,5.1,9.2,88,0.00,BKN,,0.18,33.0,WeatherDisplay:10.37,2013-01-23 12:25:00,
2013-01-23 13:32:00,33.1,29.9,29.79,WSW,254,2.1,4.6,88,0.00,BKN,,0.18,33.0,WeatherDisplay:10.37,2013-01-23 12:32:00,
2013-01-23 13:37:00,33.1,29.9,29.79,West,278,0.9,4.6,88,0.00,BKN,,0.18,32.0,WeatherDisplay:10.37,2013-01-23 12:37:00,
2013-01-23 13:42:00,33.3,30.1,29.79,West,276,1.2,3.5,88,0.00,BKN,,0.18,30.0,WeatherDisplay:10.37,2013-01-23 12:42:00,
2013-01-23 13:47:00,33.3,30.1,29.79,WSW,258,0.2,3.5,88,0.00,BKN,,0.18,28.0,WeatherDisplay:10.37,2013-01-23 12:47:00,
2013-01-23 13:52:00,33.4,30.2,29.79,SW,219,3.2,6.0,88,0.00,BKN,,0.18,30.0,WeatherDisplay:10.37,2013-01-23 12:52:00,
2013-01-23 13:57:00,33.4,30.2,29.79,SW,216,3.1,5.8,88,0.00,BKN,,0.18,30.0,WeatherDisplay:10.37,2013-01-23 12:57:00,
2013-01-23 14:02:00,33.3,30.1,29.80,SW,229,0.8,5.8,88,0.00,BKN,,0.18,30.0,WeatherDisplay:10.37,2013-01-23 13:02:00,
2013-01-23 14:07:00,33.4,30.2,29.80,SW,231,1.5,3.5,88,0.00,BKN,,0.18,28.0,WeatherDisplay:10.37,2013-01-23 13:07:00,
2013-01-23 14:12:00,33.4,30.2,29.80,NW,325,0.1,3.5,88,0.00,BKN,,0.18,26.0,WeatherDisplay:10.37,2013-01-23 13:12:00,
2013-01-23 14:17:00,33.3,30.1,29.80,NW,325,0.3,2.3,88,0.00,BKN,,0.18,25.0,WeatherDisplay:10.37,2013-01-23 13:17:00,
2013-01-23 14:22:00,33.2,29.8,29.80,NW,326,0.3,3.5,87,0.00,BKN,,0.18,23.0,WeatherDisplay:10.37,2013-01-23 13:22:00,
2013-01-23 14:27:00,33.1,29.9,29.80,NW,326,0.8,2.3,88,0.00,BKN,,0.18,23.0,WeatherDisplay:10.37,2013-01-23 13:27:00,
2013-01-23 14:32:00,32.9,29.7,29.80,NW,325,0.0,0.0,88,0.00,BKN,,0.18,23.0,WeatherDisplay:10.37,2013-01-23 13:32:00,
2013-01-23 14:37:00,32.8,29.6,29.80,NW,326,0.0,0.0,88,0.00,BKN,,0.18,23.0,WeatherDisplay:10.37,2013-01-23 13:37:00,
2013-01-23 14:42:00,32.7,29.5,29.80,NW,326,0.5,2.3,88,0.00,BKN,,0.18,23.0,WeatherDisplay:10.37,2013-01-23 13:42:00,
2013-01-23 14:47:00,32.6,29.7,29.81,North,360,0.0,0.0,89,0.00,BKN,,0.18,23.0,WeatherDisplay:10.37,2013-01-23 13:47:00,
2013-01-23 14:52:00,32.6,29.7,29.81,North,360,0.1,1.0,89,0.00,BKN,,0.18,23.0,WeatherDisplay:10.37,2013-01-23 13:52:00,
2013-01-23 14:57:00,32.5,29.6,29.81,NW,326,0.0,0.0,89,0.00,BKN,,0.18,21.0,WeatherDisplay:10.37,2013-01-23 13:57:00,
2013-01-23 15:02:00,32.5,29.6,29.81,NW,326,0.3,2.3,89,0.00,BKN,,0.18,19.0,WeatherDisplay:10.37,2013-01-23 14:02:00,
2013-01-23 15:07:00,32.4,29.5,29.81,NW,326,0.8,2.3,89,0.00,BKN,,0.18,19.0,WeatherDisplay:10.37,2013-01-23 14:07:00,
2013-01-23 15:12:00,32.3,29.4,29.81,NW,325,0.0,2.3,89,0.00,BKN,,0.18,18.0,WeatherDisplay:10.37,2013-01-23 14:12:00,
2013-01-23 15:17:00,32.2,29.6,29.81,North,360,0.7,2.0,90,0.00,BKN,,0.18,16.0,WeatherDisplay:10.37,2013-01-23 14:17:00,
2013-01-23 15:22:00,32.1,29.5,29.81,NW,326,0.2,1.1,90,0.00,BKN,,0.18,14.0,WeatherDisplay:10.37,2013-01-23 14:22:00,
2013-01-23 15:27:00,32.1,29.5,29.81,NW,326,0.6,2.3,90,0.00,BKN,,0.18,12.0,WeatherDisplay:10.37,2013-01-23 14:27:00,
2013-01-23 15:32:00,32.0,29.4,29.81,NW,325,0.6,2.3,90,0.00,BKN,,0.18,11.0,WeatherDisplay:10.37,2013-01-23 14:32:00,
2013-01-23 15:37:00,31.9,29.3,29.81,NW,326,1.2,2.3,90,0.00,BKN,,0.18,9.0,WeatherDisplay:10.37,2013-01-23 14:37:00,
2013-01-23 15:42:00,31.7,29.1,29.80,NW,326,0.2,3.5,90,0.00,BKN,,0.18,7.0,WeatherDisplay:10.37,2013-01-23 14:42:00,
2013-01-23 15:47:00,31.6,29.0,29.80,NW,326,0.8,3.5,90,0.00,BKN,,0.18,7.0,WeatherDisplay:10.37,2013-01-23 14:47:00,
2013-01-23 15:52:00,31.5,28.9,29.80,NW,326,0.0,1.1,90,0.00,BKN,,0.18,7.0,WeatherDisplay:10.37,2013-01-23 14:52:00,
2013-01-23 15:57:00,31.5,28.9,29.81,NW,326,0.0,0.0,90,0.00,BKN,,0.18,5.0,WeatherDisplay:10.37,2013-01-23 14:57:00,
2013-01-23 16:02:00,31.4,29.1,29.81,NW,326,0.0,0.0,91,0.00,BKN,,0.18,5.0,WeatherDisplay:10.37,2013-01-23 15:02:00,
2013-01-23 16:07:00,31.4,29.1,29.81,NW,326,0.0,0.0,91,0.00,BKN,,0.18,5.0,WeatherDisplay:10.37,2013-01-23 15:07:00,
2013-01-23 16:12:00,31.3,29.0,29.81,North,360,0.0,0.0,91,0.00,BKN,,0.18,0.0,WeatherDisplay:10.37,2013-01-23 15:12:00,
2013-01-23 16:17:00,31.2,28.9,29.81,NW,326,0.0,0.0,91,0.00,BKN,,0.18,0.0,WeatherDisplay:10.37,2013-01-23 15:17:00,
2013-01-23 16:22:00,31.2,28.9,29.81,NW,326,0.0,0.0,91,0.00,BKN,,0.18,0.0,WeatherDisplay:10.37,2013-01-23 15:22:00,
2013-01-23 16:27:00,31.1,28.8,29.81,NW,326,0.0,0.0,91,0.00,BKN,,0.18,0.0,WeatherDisplay:10.37,2013-01-23 15:27:00,
2013-01-23 16:32:00,31.1,28.8,29.81,NW,326,0.0,0.0,91,0.00,BKN,,0.18,0.0,WeatherDisplay:10.37,2013-01-23 15:32:00,
2013-01-23 16:37:00,31.0,28.7,29.81,NW,326,0.0,1.0,91,0.00,BKN,,0.18,0.0,WeatherDisplay:10.37,2013-01-23 15:37:00,
2013-01-23 16:42:00,30.9,28.6,29.81,NW,326,0.0,1.1,91,0.00,BKN,,0.18,0.0,WeatherDisplay:10.37,2013-01-23 15:42:00,
2013-01-23 16:47:00,30.8,28.5,29.81,NW,326,0.0,0.0,91,0.00,BKN,,0.18,0.0,WeatherDisplay:10.37,2013-01-23 15:47:00,
2013-01-23 16:52:00,30.8,28.5,29.81,NW,326,0.0,0.0,91,0.00,BKN,,0.18,0.0,WeatherDisplay:10.37,2013-01-23 15:52:00,
2013-01-23 16:57:00,30.7,28.4,29.81,NW,326,0.0,0.0,91,0.00,BKN,,0.18,0.0,WeatherDisplay:10.37,2013-01-23 15:57:00,
2013-01-23 17:02:00,30.6,28.3,29.82,NW,326,0.0,0.0,91,0.00,BKN,,0.18,0.0,WeatherDisplay:10.37,2013-01-23 16:02:00,
2013-01-23 17:07:00,30.5,28.2,29.82,NW,326,0.0,0.0,91,0.00,BKN,,0.18,0.0,WeatherDisplay:10.37,2013-01-23 16:07:00,
2013-01-23 17:12:00,30.4,28.1,29.82,NW,326,0.0,0.0,91,0.00,BKN,,0.18,0.0,WeatherDisplay:10.37,2013-01-23 16:12:00,
2013-01-23 17:17:00,30.4,28.1,29.81,NW,326,0.0,0.0,91,0.00,BKN,,0.18,0.0,WeatherDisplay:10.37,2013-01-23 16:17:00,
2013-01-23 17:22:00,30.3,28.0,29.82,NW,326,0.0,0.0,91,0.00,BKN,,0.18,0.0,WeatherDisplay:10.37,2013-01-23 16:22:00,
2013-01-23 17:27:00,30.3,28.0,29.82,NW,326,0.0,0.0,91,0.00,BKN,,0.18,0.0,WeatherDisplay:10.37,2013-01-23 16:27:00,
2013-01-23 17:32:00,30.1,27.8,29.82,NW,326,0.0,0.0,91,0.00,BKN,,0.18,0.0,WeatherDisplay:10.37,2013-01-23 16:32:00,
2013-01-23 17:37:00,30.0,27.7,29.81,NW,326,0.0,0.0,91,0.00,BKN,,0.18,0.0,WeatherDisplay:10.37,2013-01-23 16:37:00,
2013-01-23 17:42:00,29.9,27.6,29.82,NW,326,0.0,0.0,91,0.00,BKN,,0.18,0.0,WeatherDisplay:10.37,2013-01-23 16:42:00,
2013-01-23 17:47:00,29.7,27.4,29.81,NW,326,0.0,0.0,91,0.00,BKN,,0.18,0.0,WeatherDisplay:10.37,2013-01-23 16:47:00,
2013-01-23 17:52:00,29.6,27.3,29.81,NW,326,0.0,0.0,91,0.00,BKN,,0.18,0.0,WeatherDisplay:10.37,2013-01-23 16:52:00,
2013-01-23 17:57:00,29.5,27.2,29.81,NW,326,0.0,0.0,91,0.00,BKN,,0.18,0.0,WeatherDisplay:10.37,2013-01-23 16:57:00,
2013-01-23 18:02:00,29.5,27.2,29.81,NW,326,0.0,0.0,91,0.00,BKN,,0.18,0.0,WeatherDisplay:10.37,2013-01-23 17:02:00,
2013-01-23 18:07:00,29.4,27.1,29.82,NW,326,0.0,0.0,91,0.00,BKN,,0.18,0.0,WeatherDisplay:10.37,2013-01-23 17:07:00,
2013-01-23 18:12:00,29.4,27.1,29.82,NW,326,0.0,0.0,91,0.00,BKN,,0.18,0.0,WeatherDisplay:10.37,2013-01-23 17:12:00,
2013-01-23 18:17:00,29.4,27.1,29.82,NW,326,0.0,0.0,91,0.00,BKN,,0.18,0.0,WeatherDisplay:10.37,2013-01-23 17:17:00,
2013-01-23 18:22:00,29.3,27.3,29.82,North,360,0.0,0.0,92,0.00,BKN,,0.18,0.0,WeatherDisplay:10.37,2013-01-23 17:22:00,
2013-01-23 18:27:00,29.3,27.3,29.83,NW,326,0.0,0.0,92,0.00,BKN,,0.18,0.0,WeatherDisplay:10.37,2013-01-23 17:27:00,
2013-01-23 18:32:00,29.3,27.3,29.83,NW,326,0.0,0.0,92,0.00,BKN,,0.18,0.0,WeatherDisplay:10.37,2013-01-23 17:32:00,
2013-01-23 18:37:00,29.3,27.3,29.83,NW,326,0.5,2.3,92,0.00,BKN,,0.18,0.0,WeatherDisplay:10.37,2013-01-23 17:37:00,
2013-01-23 18:42:00,29.3,27.3,29.83,North,360,0.0,0.0,92,0.00,BKN,,0.18,0.0,WeatherDisplay:10.37,2013-01-23 17:42:00,
2013-01-23 18:47:00,29.3,27.3,29.83,NW,326,0.0,0.0,92,0.00,BKN,,0.18,0.0,WeatherDisplay:10.37,2013-01-23 17:47:00,
2013-01-23 18:52:00,29.4,27.4,29.83,NW,326,0.0,0.0,92,0.00,BKN,,0.18,0.0,WeatherDisplay:10.37,2013-01-23 17:52:00,
2013-01-23 18:57:00,29.4,27.4,29.83,NW,326,0.0,0.0,92,0.00,BKN,,0.18,0.0,WeatherDisplay:10.37,2013-01-23 17:57:00,
2013-01-23 19:02:00,29.5,27.7,29.83,NW,326,0.0,0.0,93,0.00,BKN,,0.18,0.0,WeatherDisplay:10.37,2013-01-23 18:02:00,
2013-01-23 19:07:00,29.5,27.7,29.83,NW,326,0.0,0.0,93,0.00,BKN,,0.18,0.0,WeatherDisplay:10.37,2013-01-23 18:07:00,
2013-01-23 19:12:00,29.6,27.8,29.83,NW,326,0.0,0.0,93,0.00,BKN,,0.18,0.0,WeatherDisplay:10.37,2013-01-23 18:12:00,
2013-01-23 19:17:00,29.6,27.8,29.83,North,360,0.0,0.0,93,0.00,BKN,,0.18,0.0,WeatherDisplay:10.37,2013-01-23 18:17:00,
2013-01-23 19:22:00,29.7,27.9,29.83,NW,326,0.0,0.0,93,0.00,BKN,,0.18,0.0,WeatherDisplay:10.37,2013-01-23 18:22:00,
2013-01-23 19:27:00,29.8,28.0,29.83,NW,326,0.0,0.0,93,0.00,BKN,,0.18,0.0,WeatherDisplay:10.37,2013-01-23 18:27:00,
2013-01-23 19:32:00,29.8,28.0,29.83,NW,326,0.0,0.0,93,0.00,BKN,,0.18,0.0,WeatherDisplay:10.37,2013-01-23 18:32:00,
2013-01-23 19:37:00,29.9,28.1,29.83,NW,326,0.0,0.0,93,0.00,BKN,,0.18,0.0,WeatherDisplay:10.37,2013-01-23 18:37:00,
2013-01-23 19:42:00,29.9,28.1,29.83,North,360,0.0,0.0,93,0.00,BKN,,0.18,0.0,WeatherDisplay:10.37,2013-01-23 18:42:00,
2013-01-23 19:47:00,30.0,28.2,29.83,NW,326,0.0,0.0,93,0.00,BKN,,0.18,0.0,WeatherDisplay:10.37,2013-01-23 18:47:00,
2013-01-23 19:52:00,30.0,28.2,29.83,NW,326,0.0,0.0,93,0.00,BKN,,0.18,0.0,WeatherDisplay:10.37,2013-01-23 18:52:00,
2013-01-23 19:57:00,30.1,28.3,29.83,NW,326,0.0,0.0,93,0.00,BKN,,0.18,0.0,WeatherDisplay:10.37,2013-01-23 18:57:00,
2013-01-23 20:02:00,30.1,28.3,29.83,NW,326,0.0,0.0,93,0.00,BKN,,0.18,0.0,WeatherDisplay:10.37,2013-01-23 19:02:00,
2013-01-23 20:07:00,30.2,28.4,29.84,NW,326,0.0,0.0,93,0.00,BKN,,0.18,0.0,WeatherDisplay:10.37,2013-01-23 19:07:00,
2013-01-23 20:12:00,30.2,28.7,29.84,NW,326,0.0,0.0,94,0.00,BKN,,0.18,0.0,WeatherDisplay:10.37,2013-01-23 19:12:00,
2013-01-23 20:17:00,30.2,28.4,29.83,NW,326,0.0,0.0,93,0.00,BKN,,0.18,0.0,WeatherDisplay:10.37,2013-01-23 19:17:00,
2013-01-23 20:22:00,30.2,28.4,29.83,NW,326,0.0,0.0,93,0.00,BKN,,0.18,0.0,WeatherDisplay:10.37,2013-01-23 19:22:00,
2013-01-23 20:27:00,30.3,28.5,29.83,NW,326,0.0,0.0,93,0.00,BKN,,0.18,0.0,WeatherDisplay:10.37,2013-01-23 19:27:00,
2013-01-23 20:32:00,30.2,28.4,29.83,NW,326,0.0,0.0,93,0.00,BKN,,0.18,0.0,WeatherDisplay:10.37,2013-01-23 19:32:00,
2013-01-23 20:38:00,30.2,28.4,29.84,North,360,0.0,0.0,93,0.00,BKN,,0.18,0.0,WeatherDisplay:10.37,2013-01-23 19:38:00,
2013-01-23 20:43:00,30.2,28.7,29.84,NW,326,0.0,0.0,94,0.00,BKN,,0.18,0.0,WeatherDisplay:10.37,2013-01-23 19:43:00,
2013-01-23 20:48:00,30.3,28.8,29.84,North,360,0.0,0.0,94,0.00,BKN,,0.18,0.0,WeatherDisplay:10.37,2013-01-23 19:48:00,
2013-01-23 20:53:00,30.2,28.7,29.84,NW,326,0.0,0.0,94,0.00,BKN,,0.18,0.0,WeatherDisplay:10.37,2013-01-23 19:53:00,
2013-01-23 20:58:00,30.2,28.7,29.84,NW,326,0.0,1.1,94,0.00,BKN,,0.18,0.0,WeatherDisplay:10.37,2013-01-23 19:58:00,
2013-01-23 21:03:00,30.2,28.4,29.84,NW,326,0.0,0.0,93,0.00,BKN,,0.18,0.0,WeatherDisplay:10.37,2013-01-23 20:03:00,
2013-01-23 21:08:00,30.2,28.7,29.84,NW,326,0.0,1.1,94,0.00,BKN,,0.18,0.0,WeatherDisplay:10.37,2013-01-23 20:08:00,
2013-01-23 21:13:00,30.2,28.7,29.84,North,360,0.3,1.1,94,0.00,BKN,,0.18,0.0,WeatherDisplay:10.37,2013-01-23 20:13:00,
2013-01-23 21:18:00,30.2,28.4,29.83,NW,326,0.0,0.0,93,0.00,BKN,,0.18,0.0,WeatherDisplay:10.37,2013-01-23 20:18:00,
2013-01-23 21:23:00,30.2,28.4,29.83,North,360,0.0,0.0,93,0.00,BKN,,0.18,0.0,WeatherDisplay:10.37,2013-01-23 20:23:00,
2013-01-23 21:28:00,30.2,28.4,29.83,NW,326,0.0,0.0,93,0.00,BKN,,0.18,0.0,WeatherDisplay:10.37,2013-01-23 20:28:00,
2013-01-23 21:33:00,30.2,28.7,29.83,NW,326,0.0,0.0,94,0.00,BKN,,0.18,0.0,WeatherDisplay:10.37,2013-01-23 20:33:00,
2013-01-23 21:38:00,30.2,28.7,29.83,NW,326,0.0,0.0,94,0.00,BKN,,0.18,0.0,WeatherDisplay:10.37,2013-01-23 20:38:00,
2013-01-23 21:43:00,30.3,28.8,29.83,NW,326,0.0,0.0,94,0.00,BKN,,0.18,0.0,WeatherDisplay:10.37,2013-01-23 20:43:00,
2013-01-23 21:48:00,30.3,28.8,29.83,NW,326,0.0,0.0,94,0.00,BKN,,0.18,0.0,WeatherDisplay:10.37,2013-01-23 20:48:00,
2013-01-23 21:53:00,30.4,28.9,29.83,NW,326,0.0,0.0,94,0.00,BKN,,0.18,0.0,WeatherDisplay:10.37,2013-01-23 20:53:00,
2013-01-23 21:58:00,30.4,28.9,29.83,NW,326,0.0,1.1,94,0.00,BKN,,0.18,0.0,WeatherDisplay:10.37,2013-01-23 20:58:00,
2013-01-23 22:03:00,30.5,29.0,29.83,NW,326,0.0,1.0,94,0.00,BKN,,0.18,0.0,WeatherDisplay:10.37,2013-01-23 21:03:00,
2013-01-23 22:08:00,30.6,29.1,29.83,NW,326,0.1,1.1,94,0.00,BKN,,0.18,0.0,WeatherDisplay:10.37,2013-01-23 21:08:00,
2013-01-23 22:13:00,30.6,29.1,29.83,NW,326,0.1,1.1,94,0.00,BKN,,0.18,0.0,WeatherDisplay:10.37,2013-01-23 21:13:00,
2013-01-23 22:18:00,30.7,29.2,29.83,NW,326,0.5,2.3,94,0.00,BKN,,0.18,0.0,WeatherDisplay:10.37,2013-01-23 21:18:00,
2013-01-23 22:23:00,30.7,29.2,29.83,NW,326,0.0,0.0,94,0.00,BKN,,0.18,0.0,WeatherDisplay:10.37,2013-01-23 21:23:00,
2013-01-23 22:28:00,30.6,29.1,29.83,NW,326,0.0,0.0,94,0.00,BKN,,0.18,0.0,WeatherDisplay:10.37,2013-01-23 21:28:00,
2013-01-23 22:33:00,30.6,29.1,29.83,NW,326,0.0,0.0,94,0.00,BKN,,0.18,0.0,WeatherDisplay:10.37,2013-01-23 21:33:00,
2013-01-23 22:38:00,30.6,29.1,29.83,NW,326,0.0,0.0,94,0.00,BKN,,0.18,0.0,WeatherDisplay:10.37,2013-01-23 21:38:00,
2013-01-23 22:43:00,30.6,29.1,29.83,NW,326,0.0,0.0,94,0.00,BKN,,0.18,0.0,WeatherDisplay:10.37,2013-01-23 21:43:00,
2013-01-23 22:48:00,30.6,29.1,29.83,NW,326,0.0,0.0,94,0.00,BKN,,0.18,0.0,WeatherDisplay:10.37,2013-01-23 21:48:00,
2013-01-23 22:53:00,30.7,29.2,29.83,NW,326,0.0,1.1,94,0.00,BKN,,0.18,0.0,WeatherDisplay:10.37,2013-01-23 21:53:00,
2013-01-23 22:58:00,30.7,29.2,29.83,NW,326,0.0,0.0,94,0.00,BKN,,0.18,0.0,WeatherDisplay:10.37,2013-01-23 21:58:00,
2013-01-23 23:03:00,30.8,29.3,29.83,NW,326,0.0,0.0,94,0.00,BKN,,0.18,0.0,WeatherDisplay:10.37,2013-01-23 22:03:00,
2013-01-23 23:08:00,30.8,29.3,29.83,NW,326,0.0,0.0,94,0.00,BKN,,0.18,0.0,WeatherDisplay:10.37,2013-01-23 22:08:00,
2013-01-23 23:13:00,30.8,29.3,29.83,NW,326,0.0,0.0,94,0.00,BKN,,0.18,0.0,WeatherDisplay:10.37,2013-01-23 22:13:00,
2013-01-23 23:18:00,30.8,29.3,29.83,NW,326,0.0,0.0,94,0.00,BKN,,0.18,0.0,WeatherDisplay:10.37,2013-01-23 22:18:00,
2013-01-23 23:23:00,30.8,29.3,29.83,NW,326,0.0,0.0,94,0.00,BKN,,0.18,0.0,WeatherDisplay:10.37,2013-01-23 22:23:00,
2013-01-23 23:28:00,30.9,29.4,29.83,NW,326,0.0,0.0,94,0.00,BKN,,0.18,0.0,WeatherDisplay:10.37,2013-01-23 22:28:00,
2013-01-23 23:33:00,30.9,29.4,29.83,NW,326,0.0,0.0,94,0.00,BKN,,0.18,0.0,WeatherDisplay:10.37,2013-01-23 22:33:00,
2013-01-23 23:38:00,30.9,29.4,29.83,NW,326,0.0,0.0,94,0.00,BKN,,0.18,0.0,WeatherDisplay:10.37,2013-01-23 22:38:00,
2013-01-23 23:43:00,30.9,29.4,29.83,NW,326,0.0,0.0,94,0.00,BKN,,0.18,0.0,WeatherDisplay:10.37,2013-01-23 22:43:00,
2013-01-23 23:48:00,30.9,29.4,29.83,NW,326,0.0,0.0,94,0.00,BKN,,0.18,0.0,WeatherDisplay:10.37,2013-01-23 22:48:00,
2013-01-23 23:53:00,30.9,29.4,29.83,NW,326,0.1,1.0,94,0.00,BKN,,0.18,0.0,WeatherDisplay:10.37,2013-01-23 22:53:00,
2013-01-23 23:58:00,30.9,29.4,29.83,North,360,0.0,0.0,94,0.00,BKN,,0.18,0.0,WeatherDisplay:10.37,2013-01-23 22:58:00,